AQQ10 IFIS: Internet Flight Information System
logo dgac
Martes 21 de Septiembre del 2021
Buscar por aerodromo o helipuerto
Ingrese nombre de aeródromo, localidad o designador OACI:
METAR del 21-09-2021 a las 11:00 UTC
Para mayor información visite www.meteochile.cl
METAR SCCI 211100Z 33015KT CAVOK 11/06 Q1009 NOSIG
Viento: dirección 330 grados, velocidad 15 nudos
Visibilidad: 10 km o más,
    sin nubes bajo los 5.000 pies o bajo del MSA (Mínimo de Seguridad del Aeródromo),
    sin cumulonimbus, y sin fenómenos de tiempo significativo en el aeródromo o alrededores
Temperatura: 11 °C
Rocío: 6 °C
Humedad_relativa: 71%
Presión: 1009 hPa
No se esperan cambios significativos en las próximas 2 horas
METAR del 21-09-2021 a las 10:00 UTC
Para mayor información visite www.meteochile.cl
METAR SCCI 211000Z 33014KT CAVOK 11/05 Q1009 NOSIG
Viento: dirección 330 grados, velocidad 14 nudos
Visibilidad: 10 km o más,
    sin nubes bajo los 5.000 pies o bajo del MSA (Mínimo de Seguridad del Aeródromo),
    sin cumulonimbus, y sin fenómenos de tiempo significativo en el aeródromo o alrededores
Temperatura: 11 °C
Rocío: 5 °C
Humedad_relativa: 66%
Presión: 1009 hPa
No se esperan cambios significativos en las próximas 2 horas
METAR del 21-09-2021 a las 09:00 UTC
Para mayor información visite www.meteochile.cl
METAR SCCI 210900Z 33017KT CAVOK 11/05 Q1008 NOSIG
Viento: dirección 330 grados, velocidad 17 nudos
Visibilidad: 10 km o más,
    sin nubes bajo los 5.000 pies o bajo del MSA (Mínimo de Seguridad del Aeródromo),
    sin cumulonimbus, y sin fenómenos de tiempo significativo en el aeródromo o alrededores
Temperatura: 11 °C
Rocío: 5 °C
Humedad_relativa: 66%
Presión: 1008 hPa
No se esperan cambios significativos en las próximas 2 horas
METAR del 21-09-2021 a las 08:00 UTC
Para mayor información visite www.meteochile.cl
METAR SCCI 210800Z 36011KT CAVOK 12/06 Q1009 NOSIG
Viento: dirección 360 grados, velocidad 11 nudos
Visibilidad: 10 km o más,
    sin nubes bajo los 5.000 pies o bajo del MSA (Mínimo de Seguridad del Aeródromo),
    sin cumulonimbus, y sin fenómenos de tiempo significativo en el aeródromo o alrededores
Temperatura: 12 °C
Rocío: 6 °C
Humedad_relativa: 67%
Presión: 1009 hPa
No se esperan cambios significativos en las próximas 2 horas
METAR del 21-09-2021 a las 07:00 UTC
Para mayor información visite www.meteochile.cl
METAR SCCI 210700Z 01014KT CAVOK 11/06 Q1009 NOSIG
Viento: dirección 010 grados, velocidad 14 nudos
Visibilidad: 10 km o más,
    sin nubes bajo los 5.000 pies o bajo del MSA (Mínimo de Seguridad del Aeródromo),
    sin cumulonimbus, y sin fenómenos de tiempo significativo en el aeródromo o alrededores
Temperatura: 11 °C
Rocío: 6 °C
Humedad_relativa: 71%
Presión: 1009 hPa
No se esperan cambios significativos en las próximas 2 horas
METAR del 21-09-2021 a las 06:00 UTC
Para mayor información visite www.meteochile.cl
METAR SCCI 210600Z 36020G30KT CAVOK 11/06 Q1009 NOSIG
Viento: dirección 360 grados, velocidad 20 nudos, con ráfagas de velocidad máxima de 30Nudos
Visibilidad: 10 km o más,
    sin nubes bajo los 5.000 pies o bajo del MSA (Mínimo de Seguridad del Aeródromo),
    sin cumulonimbus, y sin fenómenos de tiempo significativo en el aeródromo o alrededores
Temperatura: 11 °C
Rocío: 6 °C
Humedad_relativa: 71%
Presión: 1009 hPa
No se esperan cambios significativos en las próximas 2 horas
METAR del 21-09-2021 a las 05:00 UTC
Para mayor información visite www.meteochile.cl
METAR SCCI 210500Z 32018G28KT 9999 SCT040 SCT080 11/06 Q1009 NOSIG
Viento: dirección 320 grados, velocidad 18 nudos, con ráfagas de velocidad máxima de 28Nudos
Visibilidad: 10 km o más
Nubes: Nubosidad parcial a 4000 pies sobre el nivel del aeródromo
Nubes: Nubosidad parcial a 8000 pies sobre el nivel del aeródromo
Temperatura: 11 °C
Rocío: 6 °C
Humedad_relativa: 71%
Presión: 1009 hPa
No se esperan cambios significativos en las próximas 2 horas
METAR del 21-09-2021 a las 04:00 UTC
Para mayor información visite www.meteochile.cl
METAR SCCI 210400Z 32022KT 9999 BKN040 12/06 Q1009 NOSIG
Viento: dirección 320 grados, velocidad 22 nudos
Visibilidad: 10 km o más
Nubes: Nublado a 4000 pies sobre el nivel del aeródromo
Temperatura: 12 °C
Rocío: 6 °C
Humedad_relativa: 67%
Presión: 1009 hPa
No se esperan cambios significativos en las próximas 2 horas
METAR del 21-09-2021 a las 03:00 UTC
Para mayor información visite www.meteochile.cl
METAR SCCI 210300Z 33019KT 9999 BKN040 12/06 Q1009 NOSIG
Viento: dirección 330 grados, velocidad 19 nudos
Visibilidad: 10 km o más
Nubes: Nublado a 4000 pies sobre el nivel del aeródromo
Temperatura: 12 °C
Rocío: 6 °C
Humedad_relativa: 67%
Presión: 1009 hPa
No se esperan cambios significativos en las próximas 2 horas
METAR del 21-09-2021 a las 02:00 UTC
Para mayor información visite www.meteochile.cl
METAR SCCI 210200Z 33012KT 9999 BKN040 11/05 Q1009 NOSIG
Viento: dirección 330 grados, velocidad 12 nudos
Visibilidad: 10 km o más
Nubes: Nublado a 4000 pies sobre el nivel del aeródromo
Temperatura: 11 °C
Rocío: 5 °C
Humedad_relativa: 66%
Presión: 1009 hPa
No se esperan cambios significativos en las próximas 2 horas